sensor_id;sensor_type;location;lat;lon;timestamp;pressure;altitude;pressure_sealevel;temperature;humidity
12073;BME280;6098;49.004;8.372;2024-03-02T00:08:39;99195.17;;;7.02;85.76
12073;BME280;6098;49.004;8.372;2024-03-02T00:23:45;99186.48;;;6.90;86.48
12073;BME280;6098;49.004;8.372;2024-03-02T00:38:50;99190.88;;;6.80;87.19
12073;BME280;6098;49.004;8.372;2024-03-02T00:53:40;99203.00;;;6.73;86.15
12073;BME280;6098;49.004;8.372;2024-03-02T01:08:30;99223.11;;;6.54;84.45
12073;BME280;6098;49.004;8.372;2024-03-02T01:23:21;99213.88;;;6.55;83.93
12073;BME280;6098;49.004;8.372;2024-03-02T01:38:12;99207.24;;;6.45;84.04
12073;BME280;6098;49.004;8.372;2024-03-02T01:53:02;99190.61;;;6.23;84.79
12073;BME280;6098;49.004;8.372;2024-03-02T02:07:58;99182.11;;;5.94;85.71
12073;BME280;6098;49.004;8.372;2024-03-02T02:37:56;99166.75;;;5.95;83.61
12073;BME280;6098;49.004;8.372;2024-03-02T02:52:48;99140.17;;;5.91;84.05
12073;BME280;6098;49.004;8.372;2024-03-02T03:07:39;99129.86;;;5.74;84.34
12073;BME280;6098;49.004;8.372;2024-03-02T03:22:32;99121.59;;;5.84;84.70
12073;BME280;6098;49.004;8.372;2024-03-02T03:37:26;99122.90;;;5.84;84.26
12073;BME280;6098;49.004;8.372;2024-03-02T03:52:17;99113.13;;;5.76;84.45
12073;BME280;6098;49.004;8.372;2024-03-02T04:07:09;99135.79;;;5.57;86.80
12073;BME280;6098;49.004;8.372;2024-03-02T04:22:02;99124.48;;;5.66;86.38
12073;BME280;6098;49.004;8.372;2024-03-02T04:36:54;99139.82;;;5.66;85.68
12073;BME280;6098;49.004;8.372;2024-03-02T04:51:44;99167.04;;;5.53;85.76
12073;BME280;6098;49.004;8.372;2024-03-02T05:06:34;99177.23;;;5.38;86.43
12073;BME280;6098;49.004;8.372;2024-03-02T05:21:27;99174.24;;;5.24;85.91
12073;BME280;6098;49.004;8.372;2024-03-02T05:36:17;99183.75;;;4.92;85.54
12073;BME280;6098;49.004;8.372;2024-03-02T05:51:07;99177.12;;;4.69;86.69
12073;BME280;6098;49.004;8.372;2024-03-02T06:05:58;99174.19;;;4.65;87.10
12073;BME280;6098;49.004;8.372;2024-03-02T06:20:49;99196.73;;;4.71;86.52
12073;BME280;6098;49.004;8.372;2024-03-02T06:35:39;99186.48;;;4.77;85.79
12073;BME280;6098;49.004;8.372;2024-03-02T06:50:31;99188.18;;;4.65;85.55
12073;BME280;6098;49.004;8.372;2024-03-02T07:05:21;99186.13;;;4.49;85.02
12073;BME280;6098;49.004;8.372;2024-03-02T07:20:12;99212.86;;;4.60;84.77
12073;BME280;6098;49.004;8.372;2024-03-02T07:35:04;99215.28;;;4.91;83.50
12073;BME280;6098;49.004;8.372;2024-03-02T07:49:58;99212.38;;;5.59;83.29
12073;BME280;6098;49.004;8.372;2024-03-02T08:04:51;99201.32;;;6.40;82.01
12073;BME280;6098;49.004;8.372;2024-03-02T08:19:45;99210.88;;;7.14;77.95
12073;BME280;6098;49.004;8.372;2024-03-02T08:34:38;99211.50;;;7.78;74.35
12073;BME280;6098;49.004;8.372;2024-03-02T08:49:32;99207.73;;;8.39;73.29
12073;BME280;6098;49.004;8.372;2024-03-02T09:04:23;99198.55;;;8.82;70.50
12073;BME280;6098;49.004;8.372;2024-03-02T09:19:15;99194.91;;;9.35;68.80
12073;BME280;6098;49.004;8.372;2024-03-02T09:34:08;99188.00;;;9.73;67.51
12073;BME280;6098;49.004;8.372;2024-03-02T09:48:59;99177.26;;;10.23;66.34
12073;BME280;6098;49.004;8.372;2024-03-02T10:03:52;99181.05;;;10.65;65.19
12073;BME280;6098;49.004;8.372;2024-03-02T10:18:46;99170.19;;;11.20;62.67
12073;BME280;6098;49.004;8.372;2024-03-02T10:33:39;99160.94;;;11.70;61.53
12073;BME280;6098;49.004;8.372;2024-03-02T10:48:32;99138.89;;;12.16;59.45
12073;BME280;6098;49.004;8.372;2024-03-02T11:03:25;99109.04;;;12.65;58.89
12073;BME280;6098;49.004;8.372;2024-03-02T11:18:18;99108.45;;;13.13;57.49
12073;BME280;6098;49.004;8.372;2024-03-02T11:33:12;99084.02;;;13.57;53.11
12073;BME280;6098;49.004;8.372;2024-03-02T11:48:06;99064.02;;;13.94;51.80
12073;BME280;6098;49.004;8.372;2024-03-02T12:18:02;99029.09;;;15.01;49.32
12073;BME280;6098;49.004;8.372;2024-03-02T12:32:54;99016.22;;;15.51;48.57
12073;BME280;6098;49.004;8.372;2024-03-02T12:47:47;99002.50;;;15.77;46.98
12073;BME280;6098;49.004;8.372;2024-03-02T13:02:41;98980.13;;;16.05;46.73
12073;BME280;6098;49.004;8.372;2024-03-02T13:17:36;98964.85;;;16.33;46.76
12073;BME280;6098;49.004;8.372;2024-03-02T13:32:29;98946.88;;;16.45;46.80
12073;BME280;6098;49.004;8.372;2024-03-02T13:47:21;98948.55;;;16.46;46.79
12073;BME280;6098;49.004;8.372;2024-03-02T14:02:14;98936.52;;;16.51;47.68
12073;BME280;6098;49.004;8.372;2024-03-02T14:17:07;98912.87;;;16.52;47.70
12073;BME280;6098;49.004;8.372;2024-03-02T14:32:00;98903.59;;;16.35;48.38
12073;BME280;6098;49.004;8.372;2024-03-02T14:46:52;98891.45;;;16.31;48.53
12073;BME280;6098;49.004;8.372;2024-03-02T15:01:44;98869.59;;;16.32;48.82
12073;BME280;6098;49.004;8.372;2024-03-02T15:16:35;98861.84;;;16.08;49.64
12073;BME280;6098;49.004;8.372;2024-03-02T15:31:27;98847.28;;;16.01;50.40
12073;BME280;6098;49.004;8.372;2024-03-02T15:46:20;98844.52;;;15.87;51.02
12073;BME280;6098;49.004;8.372;2024-03-02T16:01:12;98848.45;;;15.61;51.62
12073;BME280;6098;49.004;8.372;2024-03-02T16:16:02;98844.30;;;15.42;52.71
12073;BME280;6098;49.004;8.372;2024-03-02T16:30:53;98822.86;;;15.21;53.97
12073;BME280;6098;49.004;8.372;2024-03-02T16:45:45;98808.11;;;15.06;54.19
12073;BME280;6098;49.004;8.372;2024-03-02T17:00:37;98796.23;;;14.94;54.39
12073;BME280;6098;49.004;8.372;2024-03-02T17:15:29;98788.52;;;14.80;54.90
12073;BME280;6098;49.004;8.372;2024-03-02T17:30:21;98775.50;;;14.70;53.71
12073;BME280;6098;49.004;8.372;2024-03-02T17:45:13;98794.52;;;14.66;53.40
12073;BME280;6098;49.004;8.372;2024-03-02T18:00:07;98797.94;;;14.57;53.28
12073;BME280;6098;49.004;8.372;2024-03-02T18:15:00;98798.67;;;14.48;52.81
12073;BME280;6098;49.004;8.372;2024-03-02T18:29:52;98772.80;;;14.32;52.37
12073;BME280;6098;49.004;8.372;2024-03-02T18:44:44;98772.05;;;14.25;51.26
12073;BME280;6098;49.004;8.372;2024-03-02T18:59:35;98765.91;;;14.07;51.71
12073;BME280;6098;49.004;8.372;2024-03-02T19:14:27;98780.20;;;14.01;52.94
12073;BME280;6098;49.004;8.372;2024-03-02T19:29:19;98764.99;;;13.96;55.17
12073;BME280;6098;49.004;8.372;2024-03-02T19:44:11;98748.88;;;13.87;57.19
12073;BME280;6098;49.004;8.372;2024-03-02T19:59:03;98744.98;;;13.69;59.95
12073;BME280;6098;49.004;8.372;2024-03-02T20:13:54;98734.17;;;13.48;62.04
12073;BME280;6098;49.004;8.372;2024-03-02T20:28:50;98736.36;;;13.31;63.41
12073;BME280;6098;49.004;8.372;2024-03-02T20:43:40;98718.34;;;13.17;64.55
12073;BME280;6098;49.004;8.372;2024-03-02T20:58:31;98733.63;;;13.09;65.47
12073;BME280;6098;49.004;8.372;2024-03-02T21:13:24;98753.73;;;13.01;66.12
12073;BME280;6098;49.004;8.372;2024-03-02T21:28:15;98738.17;;;12.95;66.93
12073;BME280;6098;49.004;8.372;2024-03-02T21:43:07;98744.50;;;12.88;68.22
12073;BME280;6098;49.004;8.372;2024-03-02T21:57:59;98751.32;;;12.79;68.86
12073;BME280;6098;49.004;8.372;2024-03-02T22:12:50;98735.38;;;12.68;69.56
12073;BME280;6098;49.004;8.372;2024-03-02T22:27:43;98708.05;;;12.54;70.53
12073;BME280;6098;49.004;8.372;2024-03-02T22:42:36;98711.50;;;12.43;71.10
12073;BME280;6098;49.004;8.372;2024-03-02T22:57:31;98691.58;;;12.37;71.54
12073;BME280;6098;49.004;8.372;2024-03-02T23:12:22;98646.95;;;12.24;72.04
12073;BME280;6098;49.004;8.372;2024-03-02T23:27:14;98624.58;;;12.09;72.71
12073;BME280;6098;49.004;8.372;2024-03-02T23:42:07;98626.89;;;11.95;73.35
12073;BME280;6098;49.004;8.372;2024-03-02T23:56:58;98616.36;;;11.82;73.96
